Naples, FL (34101)

7:00 AM EDT on August 28, 2016 (GMT -0400)
Flamingo Estates | | Change Station

Elev 23 ft 26.14 °N, 81.75 °W | Updated 13 seconds ago

Clear
Clear
76.6 °F
Feels Like 77 °F
N
3.7
Wind Variable Wind from ESE

Today
High -- | Low -- °F
--% Chance of Precip.
Yesterday
High -- | Low -- °F
Precip. -- in
Pressure 29.89 in
Visibility 10.0 miles
Clouds Clear
Heat Index 77 °F
Dew Point 74 °F
Humidity 91%
Rainfall 0.00 in
Snow Depth Not available.
7:05 AM 7:50 PM
Waning Crescent, 16% visible
METAR KAPF 281053Z 04007KT 10SM CLR 26/25 A2989 RMK AO2 SLP122 T02610250
Pressure 29.89 in
Visibility 10.0 miles
Clouds Clear
Heat Index 77 °F
Dew Point 74 °F
Humidity 91%
Rainfall 0.00 in
Snow Depth Not available.
7:05 AM 7:50 PM
Waning Crescent, 16% visible
METAR KAPF 281053Z 04007KT 10SM CLR 26/25 A2989 RMK AO2 SLP122 T02610250

10-Day Weather Forecast

Almanac

Astronomy

Aug. 28, 2016 Rise Set
Actual Time
Civil Twilight
Nautical Twilight
Astronomical Twilight
Moon
Length of Visible Light
Length of Day
Tomorrow will be .
, % of the Moon is Illuminated

Today's Extremes

State Highs State Lows

Community

WunderPhotos

Upload Photos

1,935,541 photos uploaded!

WunderBlog® & News

Nearby

Air Quality

  Air Quality AQ Index Pollutant
Not available.

Snow Depth

Station Depth Elevation

Earthquake Activity

City Distance Mag. Time & Date
Minimum magnitude displayed is 2.5.

Coastal Water Temperatures

Place Temperature

Stations

Nearby Weather Stations

Station Location Temp. Windchill Dew Point Humidity Wind Precip. Elev Updated Type
                   

Watches & Warnings

There are currently no watches in effect.